Time;durP1;ratioP1;P1;durP2;ratioP2;P2;SDS_P1;SDS_P2;PMS_P1;PMS_P2;Temp;Humidity;BMP_temperature;BMP_pressure;BME280_temperature;BME280_humidity;BME280_pressure;Samples;Min_cycle;Max_cycle;Signal;HPM_P1;HPM_P2
2021/05/05 00:01:56;;;;;;;3.47;2.00;;;;;;;15.36;57.64;100697.25;4978012;28;20053;-64
2021/05/05 00:04:22;;;;;;;3.83;1.50;;;;;;;15.35;57.77;100698.41;4973709;28;20114;-65
2021/05/05 00:06:49;;;;;;;4.17;2.03;;;;;;;15.31;57.85;100700.16;4979637;28;20367;-68
2021/05/05 00:09:17;;;;;;;3.47;1.70;;;;;;;15.26;57.86;100689.00;4979572;28;20052;-66
2021/05/05 00:11:43;;;;;;;7.23;2.60;;;;;;;15.25;57.91;100689.31;4978627;28;20459;-67
2021/05/05 00:14:11;;;;;;;4.70;1.90;;;;;;;15.23;58.03;100680.34;4982320;28;20073;-66
2021/05/05 00:16:38;;;;;;;5.07;1.83;;;;;;;15.19;58.00;100676.47;4984361;28;20047;-64
2021/05/05 00:19:05;;;;;;;3.80;2.10;;;;;;;15.22;58.05;100675.88;4977736;28;20043;-66
2021/05/05 00:21:33;;;;;;;5.80;2.10;;;;;;;15.22;58.08;100673.06;4979949;28;20066;-67
2021/05/05 00:23:59;;;;;;;6.20;2.73;;;;;;;15.20;58.15;100669.69;4981715;28;20053;-65
2021/05/05 00:26:26;;;;;;;4.77;2.33;;;;;;;15.19;58.31;100668.03;4981942;28;20056;-68
2021/05/05 00:28:53;;;;;;;3.83;2.10;;;;;;;15.06;58.29;100648.00;4975657;28;20046;-66
2021/05/05 00:31:19;;;;;;;5.00;2.67;;;;;;;15.18;58.42;100670.03;4985599;28;20061;-63
2021/05/05 00:33:46;;;;;;;5.47;2.33;;;;;;;15.17;58.32;100676.78;4982838;28;20053;-63
2021/05/05 00:36:15;;;;;;;4.83;2.23;;;;;;;15.15;58.15;100685.53;4982214;28;20448;-65
2021/05/05 00:38:41;;;;;;;6.63;2.25;;;;;;;15.12;58.17;100674.91;4984625;28;20052;-64
2021/05/05 00:41:09;;;;;;;7.03;2.60;;;;;;;15.12;58.37;100668.44;4984102;28;20058;-66
2021/05/05 00:43:36;;;;;;;6.83;3.17;;;;;;;15.08;58.41;100664.56;4980596;28;20054;-64
2021/05/05 00:46:03;;;;;;;6.60;2.43;;;;;;;15.11;58.36;100666.75;4986996;28;20042;-66
2021/05/05 00:48:30;;;;;;;6.70;2.63;;;;;;;15.01;58.59;100655.69;4978808;28;20065;-65
2021/05/05 00:50:58;;;;;;;6.03;2.60;;;;;;;15.03;58.65;100665.47;4974876;28;20042;-65
2021/05/05 00:53:25;;;;;;;6.77;2.20;;;;;;;15.02;58.81;100665.81;4981959;28;20130;-65
2021/05/05 00:55:51;;;;;;;5.93;2.10;;;;;;;14.76;58.85;100624.03;4974743;28;20050;-70
2021/05/05 00:58:18;;;;;;;4.07;2.27;;;;;;;15.01;58.77;100661.31;4978138;28;20042;-68
2021/05/05 01:00:47;;;;;;;3.90;2.10;;;;;;;14.96;58.62;100658.59;4977583;28;20054;-67
2021/05/05 01:03:13;;;;;;;6.93;2.83;;;;;;;14.90;58.41;100650.22;4975131;28;20051;-67
2021/05/05 01:05:40;;;;;;;3.80;2.33;;;;;;;15.02;58.56;100657.38;4979333;28;20527;-69
2021/05/05 01:08:08;;;;;;;4.93;2.10;;;;;;;14.99;58.52;100661.63;4972507;28;20042;-68
2021/05/05 01:10:34;;;;;;;6.73;1.83;;;;;;;14.95;58.65;100649.31;4981399;28;20046;-65
2021/05/05 01:13:01;;;;;;;4.90;2.33;;;;;;;14.97;58.73;100644.22;4975312;28;20129;-67
2021/05/05 01:15:28;;;;;;;7.30;2.80;;;;;;;14.97;58.72;100637.75;4984310;28;20484;-67
2021/05/05 01:17:54;;;;;;;8.50;2.30;;;;;;;14.92;58.60;100638.69;4983189;28;20054;-68
2021/05/05 01:20:21;;;;;;;3.67;2.10;;;;;;;14.99;58.60;100647.56;4974262;28;20057;-67
2021/05/05 01:22:48;;;;;;;7.60;2.97;;;;;;;14.99;58.77;100638.28;4977424;28;20052;-69
2021/05/05 01:25:17;;;;;;;5.30;3.00;;;;;;;14.98;58.63;100628.19;4973690;28;20046;-67
2021/05/05 01:27:44;;;;;;;5.15;3.08;;;;;;;14.96;58.64;100630.47;4985789;28;20398;-69
2021/05/05 01:30:13;;;;;;;8.77;3.23;;;;;;;14.88;58.84;100617.97;4977076;28;20047;-68
2021/05/05 01:32:40;;;;;;;11.93;3.22;;;;;;;14.90;58.75;100633.34;4980960;28;20129;-66
2021/05/05 01:35:09;;;;;;;10.77;3.43;;;;;;;14.88;58.76;100635.66;4976012;28;20053;-66
2021/05/05 01:37:36;;;;;;;4.97;2.70;;;;;;;14.89;58.78;100619.63;4982715;28;20046;-64
2021/05/05 01:40:04;;;;;;;7.77;3.13;;;;;;;14.85;58.72;100625.03;4981970;28;20058;-64
2021/05/05 01:42:31;;;;;;;4.10;2.77;;;;;;;14.91;58.91;100634.22;4984017;28;20564;-63
2021/05/05 01:45:01;;;;;;;8.77;3.03;;;;;;;14.88;58.69;100637.63;4985837;28;20053;-63
2021/05/05 01:47:28;;;;;;;7.55;3.30;;;;;;;14.81;58.80;100634.38;4981042;28;20113;-64
2021/05/05 01:49:57;;;;;;;6.77;2.93;;;;;;;14.84;58.96;100642.22;4977994;28;20081;-63
2021/05/05 01:52:23;;;;;;;6.57;2.83;;;;;;;14.72;59.04;100620.19;4977498;28;20051;-65
2021/05/05 01:54:50;;;;;;;8.70;3.30;;;;;;;14.86;59.06;100642.72;4982517;28;20411;-65
2021/05/05 01:57:28;;;;;;;10.60;3.00;;;;;;;14.80;58.96;100636.38;4975732;28;20065;-66
2021/05/05 01:59:55;;;;;;;6.07;3.37;;;;;;;14.81;59.20;100635.22;4983358;28;20056;-65
2021/05/05 02:02:22;;;;;;;10.03;3.37;;;;;;;14.79;59.21;100634.69;4979837;28;20049;-65
2021/05/05 02:04:48;;;;;;;7.87;3.30;;;;;;;14.82;59.09;100639.69;4975259;28;20058;-64
2021/05/05 02:07:15;;;;;;;13.20;3.73;;;;;;;14.83;59.14;100632.09;4981924;28;20051;-66
2021/05/05 02:09:42;;;;;;;10.37;3.87;;;;;;;14.78;59.23;100630.22;4972856;28;20154;-65
2021/05/05 02:12:09;;;;;;;10.57;4.80;;;;;;;14.81;59.29;100640.84;4974264;28;20531;-65
2021/05/05 02:14:35;;;;;;;5.73;3.10;;;;;;;14.79;59.46;100642.28;4980627;28;20069;-66
2021/05/05 02:17:01;;;;;;;4.97;2.63;;;;;;;14.83;59.50;100649.78;4974864;28;20763;-67
2021/05/05 02:19:28;;;;;;;7.03;2.50;;;;;;;14.83;59.48;100638.53;4982548;28;20189;-66
2021/05/05 02:21:54;;;;;;;4.47;2.20;;;;;;;14.83;59.34;100638.53;4981165;28;20061;-66
2021/05/05 02:24:20;;;;;;;5.63;2.70;;;;;;;14.84;59.55;100628.16;4977165;28;20046;-67
2021/05/05 02:26:47;;;;;;;7.90;2.40;;;;;;;14.84;59.68;100622.53;4976939;28;20043;-65
2021/05/05 02:29:13;;;;;;;5.10;2.10;;;;;;;14.84;59.61;100620.56;4978183;28;20056;-66
2021/05/05 02:31:40;;;;;;;5.33;2.37;;;;;;;14.83;59.71;100618.88;4981974;28;20202;-66
2021/05/05 02:34:07;;;;;;;4.77;1.90;;;;;;;14.82;59.74;100614.38;4983268;28;20054;-67
2021/05/05 02:36:34;;;;;;;7.43;2.57;;;;;;;14.82;59.69;100608.75;4994322;28;20050;-68
2021/05/05 02:39:14;;;;;;;4.33;2.67;;;;;;;14.79;59.67;100602.94;4981801;28;20165;-69
2021/05/05 02:41:42;;;;;;;6.77;2.70;;;;;;;14.82;59.79;100605.97;4999910;28;20045;-69
2021/05/05 02:44:09;;;;;;;7.20;2.60;;;;;;;14.83;59.72;100604.81;4988294;28;20055;-69
2021/05/05 02:46:38;;;;;;;6.67;2.97;;;;;;;14.65;59.57;100581.22;4984029;28;20048;-69
2021/05/05 02:49:06;;;;;;;4.95;3.00;;;;;;;14.81;59.79;100598.69;4986552;28;20042;-68
2021/05/05 02:51:34;;;;;;;6.83;3.03;;;;;;;14.84;59.49;100594.41;4986278;28;20177;-68
2021/05/05 02:54:00;;;;;;;12.30;2.60;;;;;;;14.51;59.29;100545.78;4975447;28;20046;-68
2021/05/05 02:56:27;;;;;;;5.47;3.37;;;;;;;14.79;59.54;100592.50;4980508;28;20051;-69
2021/05/05 02:58:53;;;;;;;8.43;3.20;;;;;;;14.77;59.75;100577.94;4980551;28;20415;-69
2021/05/05 03:01:19;;;;;;;7.00;2.33;;;;;;;14.75;59.56;100585.84;4983109;28;20046;-67
2021/05/05 03:03:46;;;;;;;7.90;3.17;;;;;;;14.74;59.79;100587.00;4980347;28;20047;-68
2021/05/05 03:06:12;;;;;;;9.70;3.03;;;;;;;14.75;59.65;100597.09;4983194;28;20050;-71
2021/05/05 03:08:38;;;;;;;8.17;3.27;;;;;;;14.75;59.66;100583.03;4975935;28;20050;-69
2021/05/05 03:11:05;;;;;;;7.07;3.27;;;;;;;14.68;59.66;100572.19;4977564;28;20058;-69
2021/05/05 03:13:31;;;;;;;5.40;2.83;;;;;;;14.78;59.52;100592.84;4981379;28;20505;-65
2021/05/05 03:15:58;;;;;;;11.10;3.47;;;;;;;14.75;59.44;100602.72;4978720;28;20047;-65
2021/05/05 03:18:25;;;;;;;9.03;3.30;;;;;;;14.64;59.57;100589.97;4978902;28;20453;-63
2021/05/05 03:20:52;;;;;;;6.00;2.80;;;;;;;14.72;59.63;100616.53;4993152;28;20053;-66
2021/05/05 03:23:18;;;;;;;8.10;3.47;;;;;;;14.60;59.69;100598.19;4979350;28;20147;-67
2021/05/05 03:25:44;;;;;;;11.57;3.87;;;;;;;14.72;59.77;100619.34;4985527;28;20211;-67
2021/05/05 03:28:11;;;;;;;7.77;3.00;;;;;;;14.71;59.71;100624.16;4979651;28;20042;-66
2021/05/05 03:30:37;;;;;;;7.13;3.00;;;;;;;14.71;59.69;100618.53;4981871;28;20050;-65
2021/05/05 03:33:03;;;;;;;5.33;3.30;;;;;;;14.68;59.70;100619.97;4978640;28;20043;-65
2021/05/05 03:35:30;;;;;;;6.13;3.03;;;;;;;14.70;59.71;100622.50;4983833;28;20456;-65
2021/05/05 03:37:58;;;;;;;6.27;3.40;;;;;;;14.69;59.62;100620.78;4981771;28;20125;-65
2021/05/05 03:40:24;;;;;;;4.80;3.07;;;;;;;14.68;59.79;100616.31;4984977;28;20571;-67
2021/05/05 03:42:50;;;;;;;7.57;3.17;;;;;;;14.54;59.88;100607.00;4980151;28;20046;-66
2021/05/05 03:45:17;;;;;;;12.40;3.40;;;;;;;14.57;59.95;100623.25;4979777;28;20054;-68
2021/05/05 03:47:44;;;;;;;6.80;3.43;;;;;;;14.45;59.95;100593.59;4980897;28;20046;-67
2021/05/05 03:50:11;;;;;;;6.23;3.23;;;;;;;14.55;59.84;100620.75;4986775;28;20058;-67
2021/05/05 03:52:37;;;;;;;7.33;3.47;;;;;;;14.49;59.92;100612.66;4979388;28;20141;-66
2021/05/05 03:55:05;;;;;;;6.23;3.20;;;;;;;14.42;59.94;100611.06;4982435;28;20058;-65
2021/05/05 03:57:31;;;;;;;8.60;3.07;;;;;;;14.34;60.04;100608.97;4979205;28;20042;-64
2021/05/05 03:59:58;;;;;;;9.07;3.40;;;;;;;14.35;60.16;100605.00;4984580;28;20453;-67
2021/05/05 04:02:24;;;;;;;6.47;3.37;;;;;;;14.33;60.23;100610.09;4980623;28;20042;-68
2021/05/05 04:04:51;;;;;;;10.30;3.40;;;;;;;14.22;60.28;100594.53;4986410;28;20498;-67
2021/05/05 04:07:20;;;;;;;5.60;3.60;;;;;;;14.32;60.43;100611.22;4981964;28;20070;-67
2021/05/05 04:09:46;;;;;;;9.55;2.90;;;;;;;14.34;60.17;100620.19;4986251;28;20140;-67
2021/05/05 04:12:13;;;;;;;6.63;3.23;;;;;;;14.27;60.24;100622.56;4990097;28;20492;-67
2021/05/05 04:14:39;;;;;;;6.20;3.67;;;;;;;14.25;60.26;100626.81;4979720;28;20451;-66
2021/05/05 04:17:27;;;;;;;8.60;3.80;;;;;;;14.14;60.21;100604.47;4977114;28;20045;-66
2021/05/05 04:20:12;;;;;;;8.93;3.73;;;;;;;14.17;60.20;100609.50;4976409;28;20060;-66
2021/05/05 04:22:57;;;;;;;5.53;3.10;;;;;;;14.12;60.24;100614.34;4978309;28;20045;-63
2021/05/05 04:25:41;;;;;;;9.37;2.93;;;;;;;14.03;60.47;100602.13;4985870;28;20108;-64
2021/05/05 04:28:08;;;;;;;8.57;3.57;;;;;;;14.06;60.58;100602.38;4980236;28;20050;-62
2021/05/05 04:30:35;;;;;;;8.23;4.00;;;;;;;14.09;60.68;100612.16;4988298;28;20047;-62
2021/05/05 04:33:01;;;;;;;11.83;4.20;;;;;;;14.08;60.93;100616.09;4975660;28;20053;-63
2021/05/05 04:35:27;;;;;;;10.77;4.97;;;;;;;14.06;60.87;100615.56;4982522;28;20054;-64
2021/05/05 04:37:54;;;;;;;7.27;4.00;;;;;;;13.96;60.84;100602.50;4982294;28;20061;-64
2021/05/05 04:40:20;;;;;;;12.90;4.60;;;;;;;14.09;60.83;100617.78;4983204;28;20063;-63
2021/05/05 04:42:46;;;;;;;9.03;4.13;;;;;;;14.09;60.90;100618.63;4993667;28;20039;-64
2021/05/05 04:45:13;;;;;;;11.23;3.77;;;;;;;14.03;61.03;100611.38;4986252;28;20050;-64
2021/05/05 04:47:42;;;;;;;9.80;4.10;;;;;;;14.06;60.94;100607.16;4981885;28;20054;-63
2021/05/05 04:50:10;;;;;;;10.00;4.43;;;;;;;14.02;60.93;100598.50;4988171;28;20133;-65
2021/05/05 04:52:37;;;;;;;7.07;3.30;;;;;;;14.10;60.79;100611.84;4979208;28;20054;-66
2021/05/05 04:55:07;;;;;;;6.07;3.07;;;;;;;14.07;60.86;100609.63;4981691;28;20550;-64
2021/05/05 04:57:35;;;;;;;12.85;3.78;;;;;;;13.96;60.98;100596.91;4981723;28;20043;-66
2021/05/05 05:00:22;;;;;;;6.63;3.50;;;;;;;13.99;61.10;100602.75;4976972;28;20055;-65
2021/05/05 05:02:49;;;;;;;6.47;3.57;;;;;;;14.12;60.88;100617.16;4979225;28;20046;-66
2021/05/05 05:05:15;;;;;;;7.03;3.73;;;;;;;14.16;61.24;100624.69;4975996;28;20055;-67
2021/05/05 05:07:42;;;;;;;8.07;2.87;;;;;;;14.14;61.34;100626.94;4975896;28;20142;-65
2021/05/05 05:10:09;;;;;;;4.97;3.20;;;;;;;14.14;61.29;100629.75;4980356;28;20053;-66
2021/05/05 05:12:35;;;;;;;8.07;2.80;;;;;;;14.14;61.32;100626.13;4983356;28;20129;-66
2021/05/05 05:15:02;;;;;;;6.23;3.03;;;;;;;14.16;61.51;100641.53;4981048;28;20053;-67
2021/05/05 05:17:28;;;;;;;9.23;2.93;;;;;;;14.15;61.55;100639.00;4977199;28;20053;-66
2021/05/05 05:19:54;;;;;;;9.57;3.20;;;;;;;14.12;61.42;100640.47;4983374;28;20113;-67
2021/05/05 05:22:21;;;;;;;6.47;3.40;;;;;;;14.17;61.66;100647.97;4984920;28;20050;-66
2021/05/05 05:24:47;;;;;;;6.03;2.80;;;;;;;14.06;61.88;100655.72;4985467;28;20061;-67
2021/05/05 05:27:13;;;;;;;4.27;2.80;;;;;;;14.01;61.72;100644.53;4978630;28;20057;-67
2021/05/05 05:29:40;;;;;;;15.33;3.10;;;;;;;14.07;61.71;100659.34;4982410;28;20485;-66
2021/05/05 05:32:06;;;;;;;10.00;3.17;;;;;;;14.10;61.73;100664.38;4983490;28;20133;-68
2021/05/05 05:34:33;;;;;;;4.90;2.23;;;;;;;14.06;62.00;100663.31;4978476;28;20046;-62
2021/05/05 05:36:59;;;;;;;19.70;2.83;;;;;;;14.04;62.10;100659.94;4977330;28;20052;-67
2021/05/05 05:39:25;;;;;;;4.30;2.27;;;;;;;13.80;63.10;100649.59;4976163;28;20050;-65
2021/05/05 05:41:53;;;;;;;5.80;2.40;;;;;;;13.94;62.68;100658.94;4980033;28;20046;-64
2021/05/05 05:44:20;;;;;;;10.90;3.77;;;;;;;14.02;62.70;100665.88;4975909;28;20050;-64
2021/05/05 05:46:46;;;;;;;6.97;3.30;;;;;;;14.02;62.59;100668.69;4985374;28;20574;-67
2021/05/05 05:49:13;;;;;;;5.57;2.90;;;;;;;14.06;62.46;100677.34;4976077;28;20047;-64
2021/05/05 05:51:39;;;;;;;6.97;2.63;;;;;;;13.97;62.88;100672.38;4972840;28;20589;-72
2021/05/05 05:54:06;;;;;;;3.83;2.10;;;;;;;13.92;63.08;100672.47;4977696;28;20047;-62
2021/05/05 05:56:33;;;;;;;8.33;3.53;;;;;;;13.96;62.72;100676.34;4981737;28;20042;-67
2021/05/05 05:58:59;;;;;;;5.57;3.00;;;;;;;13.94;62.77;100672.97;4981802;28;20074;-66
2021/05/05 06:01:26;;;;;;;8.43;3.17;;;;;;;14.14;62.48;100674.69;4986869;28;20137;-67
2021/05/05 06:03:53;;;;;;;8.73;3.43;;;;;;;14.26;62.26;100674.25;4980594;28;20443;-66
2021/05/05 06:06:19;;;;;;;8.53;3.13;;;;;;;14.31;62.31;100673.34;4983339;28;20047;-66
2021/05/05 06:08:46;;;;;;;7.10;3.40;;;;;;;14.35;62.52;100680.03;4981037;28;20047;-67
2021/05/05 06:11:12;;;;;;;7.30;3.03;;;;;;;14.46;62.35;100682.41;4977233;28;20062;-66
2021/05/05 06:13:39;;;;;;;9.50;3.07;;;;;;;14.58;62.13;100686.75;4981333;28;20051;-69
2021/05/05 06:16:05;;;;;;;5.93;3.50;;;;;;;14.80;61.59;100683.31;4985480;28;20053;-67
2021/05/05 06:18:32;;;;;;;6.93;3.33;;;;;;;15.03;61.32;100690.78;4977458;28;20125;-65
2021/05/05 06:20:59;;;;;;;8.47;4.20;;;;;;;15.25;61.11;100695.78;4980503;28;20049;-67
2021/05/05 06:23:26;;;;;;;4.87;3.47;;;;;;;15.54;60.74;100697.50;4990299;28;20053;-67
2021/05/05 06:25:55;;;;;;;7.37;3.80;;;;;;;15.71;60.43;100696.91;4981652;28;20130;-67
2021/05/05 06:28:22;;;;;;;8.10;4.37;;;;;;;15.95;60.20;100693.91;4984597;28;20458;-66
2021/05/05 06:30:49;;;;;;;7.37;3.37;;;;;;;16.10;59.72;100699.19;4981510;28;20130;-66
2021/05/05 06:33:15;;;;;;;4.60;3.13;;;;;;;16.17;59.64;100693.13;4981019;28;20477;-67
2021/05/05 06:35:42;;;;;;;7.80;3.13;;;;;;;15.57;59.38;100604.81;4985034;28;20057;-67
2021/05/05 06:38:08;;;;;;;6.10;3.47;;;;;;;16.18;59.33;100709.75;4977884;28;20054;-66
2021/05/05 06:40:35;;;;;;;6.87;3.80;;;;;;;16.30;59.06;100701.56;4983931;28;20057;-66
2021/05/05 06:43:01;;;;;;;5.40;2.90;;;;;;;16.54;58.85;100703.31;4983633;28;20129;-65
2021/05/05 06:45:27;;;;;;;5.97;3.27;;;;;;;16.81;58.39;100700.44;4976046;28;20253;-66
2021/05/05 06:47:54;;;;;;;10.00;3.47;;;;;;;17.06;57.96;100706.63;4964680;28;20086;-66
2021/05/05 06:50:20;;;;;;;13.83;4.17;;;;;;;17.32;57.71;100698.31;4980454;28;20058;-66
2021/05/05 06:52:46;;;;;;;6.33;3.33;;;;;;;17.51;57.22;100703.75;4976082;28;20043;-67
2021/05/05 06:55:15;;;;;;;6.50;3.60;;;;;;;17.75;57.10;100698.56;4982083;28;20047;-66
2021/05/05 06:57:41;;;;;;;6.60;3.50;;;;;;;17.95;56.35;100704.84;4986760;28;20042;-65
2021/05/05 07:00:09;;;;;;;5.43;3.17;;;;;;;18.13;56.48;100700.06;4976726;28;20484;-66
2021/05/05 07:02:35;;;;;;;5.43;3.30;;;;;;;18.34;56.04;100703.09;4984452;28;20057;-66
2021/05/05 07:05:02;;;;;;;8.15;3.78;;;;;;;18.51;55.86;100702.31;4977440;28;20249;-67
2021/05/05 07:07:33;;;;;;;10.20;4.28;;;;;;;18.67;55.37;100706.31;4985950;28;20468;-66
2021/05/05 07:09:59;;;;;;;5.78;3.40;;;;;;;18.85;54.80;100707.19;4989754;28;20064;-67
2021/05/05 07:12:26;;;;;;;9.52;4.60;;;;;;;18.99;54.11;100705.03;4977885;28;20047;-68
2021/05/05 07:14:53;;;;;;;10.70;4.22;;;;;;;19.18;53.90;100702.69;4982158;28;20450;-66
2021/05/05 07:17:22;;;;;;;7.57;4.20;;;;;;;19.27;53.44;100694.16;4979007;28;20057;-68
2021/05/05 07:19:53;;;;;;;7.00;3.70;;;;;;;19.41;53.29;100693.97;4980489;28;20057;-67
2021/05/05 07:22:22;;;;;;;10.10;4.03;;;;;;;19.42;53.07;100693.63;4988740;28;20082;-67
2021/05/05 07:24:48;;;;;;;8.27;4.05;;;;;;;19.61;52.77;100706.56;4986001;28;20043;-67
2021/05/05 07:27:16;;;;;;;9.30;3.40;;;;;;;19.69;52.36;100700.06;4976847;28;20039;-68
2021/05/05 07:29:44;;;;;;;6.70;3.65;;;;;;;19.70;52.29;100693.25;4982889;28;20519;-68
2021/05/05 07:32:11;;;;;;;8.13;4.20;;;;;;;19.94;52.18;100697.50;4980000;28;20057;-68
2021/05/05 07:34:39;;;;;;;11.10;5.00;;;;;;;20.02;51.75;100694.59;4974508;28;20051;-67
2021/05/05 07:37:15;;;;;;;6.57;4.13;;;;;;;20.26;51.24;100687.47;4982770;28;20101;-68
2021/05/05 07:45:19;;;;;;;12.32;6.53;;;;;;;20.58;50.35;100694.47;4980643;28;20447;-67
2021/05/05 07:48:03;;;;;;;14.38;6.45;;;;;;;20.68;49.79;100684.72;4986693;28;20138;-67
2021/05/05 07:50:33;;;;;;;7.05;4.47;;;;;;;20.83;49.74;100682.09;4981015;28;20479;-67
2021/05/05 07:53:02;;;;;;;10.57;4.32;;;;;;;21.03;49.06;100688.09;4976847;28;20064;-65
2021/05/05 07:55:28;;;;;;;8.48;4.07;;;;;;;21.15;48.75;100696.66;4979278;28;20547;-67
2021/05/05 07:57:54;;;;;;;8.05;3.88;;;;;;;21.14;48.56;100689.31;4980092;28;20486;-69
2021/05/05 08:00:20;;;;;;;4.63;3.10;;;;;;;21.10;48.52;100687.53;4979934;28;20130;-68
2021/05/05 08:02:47;;;;;;;7.20;3.75;;;;;;;21.08;48.39;100672.84;4957718;28;20057;-66
2021/05/05 08:05:15;;;;;;;4.88;3.63;;;;;;;21.33;47.85;100674.59;4979333;28;20043;-67
2021/05/05 08:07:41;;;;;;;5.72;3.75;;;;;;;21.50;47.66;100682.97;4983616;28;20057;-68
2021/05/05 08:10:09;;;;;;;10.52;3.40;;;;;;;21.61;46.97;100671.16;4982463;28;20058;-65
2021/05/05 08:12:38;;;;;;;7.68;3.83;;;;;;;21.74;46.63;100684.19;4985389;28;20046;-68
2021/05/05 08:15:05;;;;;;;7.90;3.35;;;;;;;21.83;46.83;100684.91;4976374;28;20047;-67
2021/05/05 08:17:32;;;;;;;6.35;3.15;;;;;;;21.88;46.55;100684.69;4978384;28;20070;-67
2021/05/05 08:20:01;;;;;;;11.43;4.45;;;;;;;22.01;46.24;100689.19;4978168;28;20125;-67
2021/05/05 08:22:27;;;;;;;6.32;3.38;;;;;;;22.14;45.91;100690.00;4976827;28;20049;-66
2021/05/05 08:24:54;;;;;;;10.98;3.97;;;;;;;22.10;45.49;100680.53;4981036;28;20050;-66
2021/05/05 08:27:22;;;;;;;8.63;3.72;;;;;;;22.22;45.09;100682.56;4979037;28;20057;-67
2021/05/05 08:29:49;;;;;;;7.80;4.05;;;;;;;22.39;45.04;100681.50;4977632;28;20138;-68
2021/05/05 08:32:16;;;;;;;6.20;3.90;;;;;;;22.64;44.68;100685.16;4981182;28;20137;-68
2021/05/05 08:34:43;;;;;;;7.00;3.90;;;;;;;22.85;44.03;100690.66;4975889;28;20047;-66
2021/05/05 08:37:11;;;;;;;7.82;4.38;;;;;;;22.85;43.57;100671.56;4977924;28;20049;-67
2021/05/05 08:39:37;;;;;;;5.85;3.13;;;;;;;23.19;42.93;100697.81;4978640;28;20129;-67
2021/05/05 08:42:05;;;;;;;5.63;2.70;;;;;;;23.40;42.44;100694.72;4976668;28;20051;-68
2021/05/05 08:44:33;;;;;;;5.18;3.10;;;;;;;23.56;41.54;100700.47;4976184;28;20138;-67
2021/05/05 08:47:03;;;;;;;7.97;3.13;;;;;;;23.67;41.65;100695.06;4978085;28;20407;-68
2021/05/05 08:49:33;;;;;;;6.40;2.72;;;;;;;23.72;41.40;100683.41;4975765;28;20128;-68
2021/05/05 08:52:01;;;;;;;3.92;2.28;;;;;;;24.01;41.48;100693.53;4977394;28;20508;-68
2021/05/05 08:54:27;;;;;;;4.55;2.50;;;;;;;24.17;41.01;100685.81;4982395;28;20434;-68
2021/05/05 08:56:53;;;;;;;5.78;2.35;;;;;;;24.50;40.29;100704.53;4977376;28;20412;-67
2021/05/05 08:59:20;;;;;;;6.68;2.92;;;;;;;24.66;39.96;100696.78;4979416;28;20055;-68
2021/05/05 09:01:46;;;;;;;5.65;2.80;;;;;;;24.90;40.28;100692.81;4983284;28;20062;-68
2021/05/05 09:04:14;;;;;;;6.22;2.97;;;;;;;25.09;40.23;100682.59;4980553;28;20053;-67
2021/05/05 09:06:58;;;;;;;4.88;2.45;;;;;;;25.22;39.33;100678.41;4976804;28;20051;-68
2021/05/05 09:09:38;;;;;;;6.82;2.55;;;;;;;25.36;39.19;100689.31;4979808;28;20117;-67
2021/05/05 09:12:12;;;;;;;6.95;2.38;;;;;;;25.22;38.82;100684.94;4978835;28;20055;-69
2021/05/05 09:14:51;;;;;;;4.53;2.17;;;;;;;25.20;38.57;100684.50;4979436;28;20668;-68
2021/05/05 09:17:23;;;;;;;5.88;2.35;;;;;;;25.00;38.34;100683.66;4975849;28;20051;-67
2021/05/05 09:19:49;;;;;;;3.90;2.05;;;;;;;25.04;37.88;100701.69;4978711;28;20051;-68
2021/05/05 09:22:36;;;;;;;5.47;2.00;;;;;;;25.03;38.13;100699.22;4980620;28;20048;-66
2021/05/05 09:25:09;;;;;;;4.18;2.20;;;;;;;25.34;37.56;100703.16;4976362;28;20054;-68
2021/05/05 09:27:37;;;;;;;3.33;2.03;;;;;;;25.46;36.95;100705.84;4975016;28;20057;-68
2021/05/05 09:30:19;;;;;;;4.53;2.20;;;;;;;25.54;37.01;100707.66;4976475;28;20057;-67
2021/05/05 09:32:53;;;;;;;4.32;2.13;;;;;;;25.62;37.18;100703.72;4979516;28;20053;-67
2021/05/05 09:35:32;;;;;;;7.20;2.08;;;;;;;25.66;37.09;100698.88;4975576;28;20082;-67
2021/05/05 09:38:02;;;;;;;5.10;1.90;;;;;;;25.90;36.75;100708.34;4976741;28;20078;-68
2021/05/05 09:40:28;;;;;;;4.80;2.08;;;;;;;25.96;36.60;100721.13;4977227;28;20511;-68
2021/05/05 09:42:55;;;;;;;4.50;2.40;;;;;;;26.04;36.19;100717.16;4973474;28;20242;-67
2021/05/05 09:45:30;;;;;;;4.32;1.98;;;;;;;26.17;35.81;100700.63;4977945;28;20461;-69
2021/05/05 09:47:59;;;;;;;3.88;2.08;;;;;;;26.26;35.78;100701.19;4972496;28;20542;-67
2021/05/05 09:50:30;;;;;;;4.38;2.05;;;;;;;26.11;36.05;100717.28;4976759;28;20102;-68
2021/05/05 09:53:32;;;;;;;5.72;2.35;;;;;;;26.00;36.61;100707.69;4972630;28;20126;-67
2021/05/05 09:55:59;;;;;;;5.57;2.10;;;;;;;26.36;36.08;100711.16;4925727;29;20075;-68
2021/05/05 09:58:35;;;;;;;4.05;2.97;;;;;;;26.59;35.35;100723.41;4970047;28;20074;-67
2021/05/05 10:01:11;;;;;;;5.22;2.60;;;;;;;26.62;35.36;100702.59;4977389;28;20062;-67
2021/05/05 10:03:43;;;;;;;5.95;2.40;;;;;;;26.83;34.93;100692.66;4976711;28;20047;-67
2021/05/05 10:06:16;;;;;;;5.43;2.88;;;;;;;26.95;35.05;100701.03;4977904;28;20194;-68
2021/05/05 10:08:42;;;;;;;4.03;2.75;;;;;;;27.06;34.66;100712.63;4978158;28;20050;-66
2021/05/05 10:11:09;;;;;;;6.22;3.08;;;;;;;27.13;34.35;100690.63;4979127;28;20077;-67
2021/05/05 10:13:36;;;;;;;4.90;2.70;;;;;;;27.20;34.81;100709.16;4980337;28;20056;-67
2021/05/05 10:16:03;;;;;;;7.80;3.03;;;;;;;27.36;34.32;100704.03;4977249;28;20555;-66
2021/05/05 10:18:30;;;;;;;5.07;2.42;;;;;;;27.75;34.50;100709.34;4976522;28;20467;-67
2021/05/05 10:20:58;;;;;;;3.85;2.80;;;;;;;28.07;33.63;100698.22;4979892;28;20050;-67
2021/05/05 10:23:25;;;;;;;4.65;2.65;;;;;;;28.13;33.94;100679.38;4977404;28;20042;-67
2021/05/05 10:25:54;;;;;;;2.95;2.17;;;;;;;28.50;33.44;100696.53;4979886;28;20057;-67
2021/05/05 10:28:23;;;;;;;4.47;2.55;;;;;;;28.74;33.02;100699.97;4980230;28;20047;-66
2021/05/05 10:30:49;;;;;;;5.03;2.53;;;;;;;28.76;32.63;100688.91;4981362;28;20595;-66
2021/05/05 10:33:21;;;;;;;5.30;2.70;;;;;;;29.07;33.13;100692.38;4980536;28;20050;-67
2021/05/05 10:35:47;;;;;;;3.95;2.45;;;;;;;28.85;33.13;100672.09;4982943;28;20042;-67
2021/05/05 10:38:33;;;;;;;8.75;2.40;;;;;;;29.18;33.34;100699.00;4978511;28;20043;-66
2021/05/05 10:41:21;;;;;;;3.45;2.70;;;;;;;29.19;33.49;100700.63;4985421;28;20058;-67
2021/05/05 10:43:52;;;;;;;4.63;2.25;;;;;;;29.25;33.42;100694.09;4990348;28;20478;-68
2021/05/05 10:46:31;;;;;;;3.85;2.10;;;;;;;29.26;33.51;100700.66;4976685;28;20126;-67
2021/05/05 10:49:13;;;;;;;5.97;2.60;;;;;;;29.07;33.45;100696.06;4980014;28;20051;-67
2021/05/05 10:51:45;;;;;;;3.00;1.92;;;;;;;28.94;33.58;100701.31;4975291;28;20051;-66
2021/05/05 10:54:16;;;;;;;5.95;2.10;;;;;;;28.87;33.36;100707.03;4975169;28;20062;-67
2021/05/05 10:57:03;;;;;;;7.22;2.58;;;;;;;28.94;33.67;100712.81;4975017;28;20042;-66
2021/05/05 10:59:29;;;;;;;3.60;2.28;;;;;;;28.91;33.53;100719.38;4975162;28;20078;-66
2021/05/05 11:01:55;;;;;;;3.83;2.10;;;;;;;28.98;33.71;100719.41;4975434;28;20054;-67
2021/05/05 11:04:22;;;;;;;11.68;2.60;;;;;;;28.76;33.33;100683.16;4979508;28;20065;-68
2021/05/05 11:06:54;;;;;;;5.25;2.85;;;;;;;28.87;33.34;100701.28;4982324;28;20049;-67
2021/05/05 11:09:22;;;;;;;3.67;2.00;;;;;;;29.00;33.21;100707.53;4975481;28;20053;-66
2021/05/05 11:11:52;;;;;;;6.47;2.50;;;;;;;29.12;33.11;100706.34;4974948;28;20126;-65
2021/05/05 11:14:28;;;;;;;4.22;1.90;;;;;;;29.17;33.20;100697.34;4974988;28;20380;-66
2021/05/05 11:17:05;;;;;;;4.65;2.17;;;;;;;29.19;33.06;100703.50;4975093;28;20046;-67
2021/05/05 11:19:38;;;;;;;3.22;2.40;;;;;;;29.35;32.70;100694.53;4974913;28;20051;-66
2021/05/05 11:22:07;;;;;;;3.85;2.20;;;;;;;29.44;32.68;100687.19;4979688;28;20065;-67
2021/05/05 11:24:40;;;;;;;;;;;;;;;28.80;34.05;100695.50;4979654;28;20066;-66
2021/05/05 11:27:09;;;;;;;4.80;2.10;;;;;;;29.25;32.96;100694.09;4974530;28;20356;-67
2021/05/05 11:29:39;;;;;;;5.07;2.00;;;;;;;29.23;32.74;100696.56;4974669;28;20043;-67
2021/05/05 11:32:05;;;;;;;;;;;;;;;28.96;34.13;100692.31;4974835;28;20046;-67
2021/05/05 11:34:46;;;;;;;5.63;2.28;;;;;;;29.21;33.03;100687.50;4974844;28;19946;-66
2021/05/05 11:37:29;;;;;;;4.53;2.33;;;;;;;29.42;32.92;100686.75;4974550;28;20070;-67